Time;durP1;ratioP1;P1;durP2;ratioP2;P2;SDS_P1;SDS_P2;PMS_P1;PMS_P2;Temp;Humidity;BMP_temperature;BMP_pressure;BME280_temperature;BME280_humidity;BME280_pressure;Samples;Min_cycle;Max_cycle;Signal;HPM_P1;HPM_P2
2023/03/08 00:00:16;;;;;;;1.50;1.40;;;0.30;99.90;;;;;;7391185;19;20328;-87
2023/03/08 00:02:41;;;;;;;1.77;1.50;;;0.30;99.90;;;;;;7391313;19;20369;-86
2023/03/08 00:05:08;;;;;;;3.07;1.70;;;0.30;99.90;;;;;;7393182;19;20324;-89
2023/03/08 00:07:34;;;;;;;1.60;1.50;;;0.30;99.90;;;;;;7392371;19;20320;-82
2023/03/08 00:10:00;;;;;;;1.63;1.40;;;0.30;99.90;;;;;;7388392;19;20329;-85
2023/03/08 00:12:27;;;;;;;1.50;1.40;;;0.30;99.90;;;;;;7386130;19;20392;-84
2023/03/08 00:14:53;;;;;;;1.40;1.30;;;0.30;99.90;;;;;;7388331;19;20309;-81
2023/03/08 00:17:18;;;;;;;2.07;1.43;;;0.20;99.90;;;;;;7390426;19;20308;-81
2023/03/08 00:19:44;;;;;;;1.60;1.50;;;0.30;99.90;;;;;;7386728;19;20968;-81
2023/03/08 00:22:12;;;;;;;1.30;1.20;;;0.30;99.90;;;;;;7390564;19;20348;-83
2023/03/08 00:24:38;;;;;;;2.00;1.40;;;0.30;99.90;;;;;;7391346;19;20304;-83
2023/03/08 00:27:03;;;;;;;1.60;1.50;;;0.30;99.90;;;;;;7388929;19;20319;-81
2023/03/08 00:29:30;;;;;;;1.58;1.48;;;0.40;99.90;;;;;;7392137;19;20309;-88
2023/03/08 00:31:56;;;;;;;2.20;1.60;;;0.40;99.90;;;;;;7388068;19;20335;-88
2023/03/08 00:34:21;;;;;;;2.22;1.40;;;0.40;99.90;;;;;;7392113;19;20415;-81
2023/03/08 00:36:47;;;;;;;1.67;1.40;;;0.40;99.90;;;;;;7381379;19;20356;-82
2023/03/08 00:39:17;;;;;;;1.50;1.40;;;0.40;99.90;;;;;;7382796;19;20343;-80
2023/03/08 00:41:43;;;;;;;1.52;1.42;;;0.30;99.90;;;;;;7379432;19;20424;-80
2023/03/08 00:44:08;;;;;;;1.50;1.30;;;0.30;99.90;;;;;;7383289;19;20882;-82
2023/03/08 00:46:34;;;;;;;2.17;1.70;;;0.30;99.90;;;;;;7383322;19;20327;-82
2023/03/08 00:48:59;;;;;;;3.35;1.70;;;0.30;99.90;;;;;;7381431;19;20351;-82
2023/03/08 00:51:25;;;;;;;1.77;1.67;;;0.30;99.90;;;;;;7382005;19;20978;-78
2023/03/08 00:53:51;;;;;;;2.45;1.90;;;0.30;99.90;;;;;;7382927;19;20372;-81
2023/03/08 00:56:18;;;;;;;2.67;1.88;;;0.30;99.90;;;;;;7382322;19;20366;-81
2023/03/08 00:58:44;;;;;;;2.35;1.83;;;0.30;99.90;;;;;;7383443;19;20740;-79
2023/03/08 01:01:14;;;;;;;3.17;2.10;;;0.30;99.90;;;;;;7382200;19;21063;-80
2023/03/08 01:03:40;;;;;;;1.90;1.80;;;0.30;99.90;;;;;;7277236;19;2004717;-80
2023/03/08 01:06:07;;;;;;;2.03;1.90;;;0.30;99.90;;;;;;7381784;19;20316;-79
2023/03/08 01:08:33;;;;;;;2.10;1.83;;;0.30;99.90;;;;;;7381363;19;20328;-78
2023/03/08 01:10:59;;;;;;;2.07;1.90;;;0.30;99.90;;;;;;7380494;19;20349;-79
2023/03/08 01:13:26;;;;;;;1.90;1.80;;;0.30;99.90;;;;;;7380459;19;20851;-80
2023/03/08 01:15:51;;;;;;;1.75;1.65;;;0.30;99.90;;;;;;7380448;19;20345;-83
2023/03/08 01:18:17;;;;;;;2.10;1.90;;;0.30;99.90;;;;;;7381186;19;20942;-78
2023/03/08 01:20:43;;;;;;;1.88;1.73;;;0.30;99.90;;;;;;7380912;19;20364;-80
2023/03/08 01:23:09;;;;;;;1.80;1.70;;;0.30;99.90;;;;;;7381055;19;20313;-82
2023/03/08 01:25:43;;;;;;;1.85;1.75;;;0.30;99.90;;;;;;7382007;19;20321;-84
2023/03/08 01:28:09;;;;;;;1.70;1.60;;;0.20;99.90;;;;;;7372177;19;20395;-81
2023/03/08 01:30:34;;;;;;;2.17;1.70;;;0.20;99.90;;;;;;7379940;19;20420;-79
2023/03/08 01:33:02;;;;;;;1.92;1.70;;;0.30;99.90;;;;;;7379855;19;20316;-80
2023/03/08 01:35:29;;;;;;;1.75;1.65;;;0.20;99.90;;;;;;7379235;19;20424;-80
2023/03/08 01:37:54;;;;;;;1.40;1.38;;;0.20;99.90;;;;;;7381447;19;20961;-83
2023/03/08 01:40:20;;;;;;;1.67;1.55;;;0.20;99.90;;;;;;7380269;19;20383;-79
2023/03/08 01:42:47;;;;;;;1.60;1.50;;;0.20;99.90;;;;;;7375802;19;20364;-81
2023/03/08 01:45:51;;;;;;;2.08;1.85;;;0.20;99.90;;;;;;7380324;19;20895;-83
2023/03/08 01:48:17;;;;;;;4.25;1.90;;;0.20;99.90;;;;;;7279425;19;2004322;-79
2023/03/08 01:50:58;;;;;;;2.58;1.77;;;0.20;99.90;;;;;;7378777;19;20364;-86
2023/03/08 01:53:24;;;;;;;1.90;1.80;;;0.20;99.90;;;;;;7378862;19;20332;-84
2023/03/08 01:55:49;;;;;;;1.50;1.40;;;0.20;99.90;;;;;;7379037;19;20354;-81
2023/03/08 01:58:15;;;;;;;2.63;1.60;;;0.20;99.90;;;;;;7380679;19;20346;-80
2023/03/08 02:00:41;;;;;;;1.60;1.50;;;0.20;99.90;;;;;;7380376;19;20346;-77
2023/03/08 02:03:07;;;;;;;2.58;1.83;;;0.20;99.90;;;;;;7378564;19;20341;-84
2023/03/08 02:05:36;;;;;;;2.00;1.52;;;0.20;99.90;;;;;;7377617;19;20321;-79
2023/03/08 02:08:10;;;;;;;1.90;1.80;;;0.20;99.90;;;;;;7277606;19;2004587;-84
2023/03/08 02:10:37;;;;;;;1.73;1.63;;;0.20;99.90;;;;;;7383281;19;20388;-87
2023/03/08 02:13:04;;;;;;;2.00;1.83;;;0.10;99.90;;;;;;7383556;19;20321;-79
2023/03/08 02:15:30;;;;;;;3.55;2.03;;;0.20;99.90;;;;;;7386512;19;20321;-84
2023/03/08 02:18:02;;;;;;;2.30;2.10;;;0.20;99.90;;;;;;7385054;19;20408;-86
2023/03/08 02:20:31;;;;;;;2.50;2.17;;;0.20;99.90;;;;;;7386053;19;20348;-88
2023/03/08 02:23:11;;;;;;;3.70;2.00;;;0.20;99.90;;;;;;7384953;19;20880;-86
2023/03/08 02:25:36;;;;;;;2.40;2.20;;;0.20;99.90;;;;;;7384433;19;20313;-88
2023/03/08 02:28:02;;;;;;;2.30;2.10;;;0.30;99.90;;;;;;7384138;19;20333;-81
2023/03/08 02:30:33;;;;;;;2.90;1.97;;;0.30;99.90;;;;;;7384949;19;20313;-82
2023/03/08 02:33:01;;;;;;;2.28;2.10;;;0.20;99.90;;;;;;7384616;19;20332;-81
2023/03/08 02:35:28;;;;;;;2.35;2.13;;;0.30;99.90;;;;;;7385311;19;20316;-82
2023/03/08 02:37:53;;;;;;;2.33;2.13;;;0.20;99.90;;;;;;7383481;19;20846;-81
2023/03/08 02:40:19;;;;;;;2.93;2.43;;;0.30;99.90;;;;;;7385402;19;20313;-83
2023/03/08 02:42:44;;;;;;;2.42;2.22;;;0.30;99.90;;;;;;7385259;19;20313;-82
2023/03/08 02:45:10;;;;;;;2.43;2.23;;;0.20;99.90;;;;;;7387816;19;20345;-85
2023/03/08 02:47:36;;;;;;;2.30;2.13;;;0.30;99.90;;;;;;7383694;19;20352;-86
2023/03/08 02:50:40;;;;;;;3.38;2.65;;;0.30;99.90;;;;;;7403609;19;20316;-92
2023/03/08 02:53:28;;;;;;;4.30;2.88;;;0.30;99.90;;;;;;7370698;19;20320;-90
2023/03/08 02:55:54;;;;;;;3.03;2.72;;;0.30;99.90;;;;;;7294663;19;2004186;-90
2023/03/08 03:03:07;;;;;;;3.38;2.95;;;0.30;99.90;;;;;;7403850;19;20441;-93
2023/03/08 03:18:35;;;;;;;3.80;3.50;;;0.30;99.90;;;;;;7343643;19;20312;-94
2023/03/08 03:21:59;;;;;;;4.75;3.47;;;0.30;99.90;;;;;;7368902;19;20320;-91
2023/03/08 03:41:51;;;;;;;4.25;3.63;;;0.30;99.90;;;;;;7339595;19;20422;-91
2023/03/08 03:51:23;;;;;;;4.57;3.95;;;0.30;99.90;;;;;;7392420;19;20409;-86
2023/03/08 04:11:36;;;;;;;5.28;4.10;;;0.20;99.90;;;;;;7411814;19;20348;-93
2023/03/08 04:14:06;;;;;;;4.88;4.20;;;0.20;99.90;;;;;;7355576;19;20290;-92
2023/03/08 04:16:57;;;;;;;4.90;3.92;;;0.20;99.90;;;;;;7341082;19;20304;-89
2023/03/08 04:23:23;;;;;;;4.25;3.85;;;0.10;99.90;;;;;;7404615;19;20365;-84
2023/03/08 04:25:49;;;;;;;5.90;4.07;;;0.20;99.90;;;;;;7411390;19;20341;-87
2023/03/08 04:28:16;;;;;;;5.38;3.95;;;0.20;99.90;;;;;;7414132;19;20355;-85
2023/03/08 04:30:41;;;;;;;4.97;4.30;;;0.10;99.90;;;;;;7409392;19;20325;-86
2023/03/08 04:33:08;;;;;;;5.88;4.15;;;0.10;99.90;;;;;;7408482;19;20324;-87
2023/03/08 04:35:42;;;;;;;4.43;4.03;;;0.10;99.90;;;;;;7309596;19;2004237;-83
2023/03/08 04:38:08;;;;;;;4.30;3.90;;;0.20;99.90;;;;;;7414441;19;20324;-85
2023/03/08 04:41:00;;;;;;;4.82;4.03;;;0.10;99.90;;;;;;7412257;19;20312;-86
2023/03/08 04:43:20;;;;;;;4.80;4.30;;;0.10;99.90;;;;;;7307773;19;2005129;-82
2023/03/08 04:45:46;;;;;;;4.72;4.22;;;0.10;99.90;;;;;;7411519;19;20379;-88
2023/03/08 04:48:12;;;;;;;4.10;3.80;;;0.20;99.90;;;;;;7412694;19;20350;-87
2023/03/08 04:50:38;;;;;;;4.83;4.07;;;0.10;99.90;;;;;;7413244;19;20316;-86
2023/03/08 04:53:04;;;;;;;4.75;4.03;;;0.10;99.90;;;;;;7414886;19;20301;-89
2023/03/08 04:55:30;;;;;;;4.55;4.15;;;0.20;99.90;;;;;;7413972;19;20426;-87
2023/03/08 04:57:56;;;;;;;4.15;3.60;;;0.20;99.90;;;;;;7411284;19;20333;-88
2023/03/08 05:00:22;;;;;;;4.78;4.20;;;0.20;99.90;;;;;;7413568;19;20377;-84
2023/03/08 05:02:48;;;;;;;5.13;4.13;;;0.20;99.90;;;;;;7408373;19;21011;-87
2023/03/08 05:05:16;;;;;;;4.30;3.90;;;0.20;99.90;;;;;;7408315;19;20337;-92
2023/03/08 05:07:43;;;;;;;4.78;3.67;;;0.10;99.90;;;;;;7408947;19;20359;-86
2023/03/08 05:10:10;;;;;;;4.43;4.00;;;0.10;99.90;;;;;;7402891;19;20312;-78
2023/03/08 05:12:35;;;;;;;4.97;3.80;;;0.20;99.90;;;;;;7376039;19;20355;-82
2023/03/08 05:15:01;;;;;;;4.63;4.23;;;0.20;99.90;;;;;;7378466;19;20728;-80
2023/03/08 05:17:27;;;;;;;5.70;4.30;;;0.10;99.90;;;;;;7377751;19;20313;-79
2023/03/08 05:19:53;;;;;;;6.00;4.38;;;0.10;99.90;;;;;;7380322;19;20426;-88
2023/03/08 05:22:25;;;;;;;5.70;4.37;;;0.20;99.90;;;;;;7373910;19;20340;-82
2023/03/08 05:24:54;;;;;;;5.80;4.03;;;0.10;99.90;;;;;;7386196;19;20351;-79
2023/03/08 05:27:19;;;;;;;4.67;4.23;;;0.10;99.90;;;;;;7385431;19;20328;-80
2023/03/08 05:29:46;;;;;;;4.63;3.90;;;0.10;99.90;;;;;;7384432;19;20332;-79
2023/03/08 05:32:12;;;;;;;4.90;4.30;;;0.10;99.90;;;;;;7376696;19;20425;-79
2023/03/08 05:34:39;;;;;;;4.40;4.00;;;0.10;99.90;;;;;;7388778;19;20297;-80
2023/03/08 05:37:07;;;;;;;4.85;4.40;;;0.10;99.90;;;;;;7388080;19;20297;-82
2023/03/08 05:39:36;;;;;;;5.65;4.75;;;0.10;99.90;;;;;;7389032;19;20293;-77
2023/03/08 05:42:17;;;;;;;4.80;4.30;;;0.10;99.90;;;;;;7386969;19;20836;-81
2023/03/08 05:44:45;;;;;;;5.77;4.30;;;0.10;99.90;;;;;;7285327;19;2004212;-80
2023/03/08 05:47:13;;;;;;;6.40;4.50;;;0.10;99.90;;;;;;7387784;19;20987;-82
2023/03/08 05:49:39;;;;;;;5.15;4.65;;;0.20;99.90;;;;;;7388543;19;20937;-81
2023/03/08 05:52:10;;;;;;;7.10;5.10;;;0.20;99.90;;;;;;7386255;19;20311;-79
2023/03/08 05:54:38;;;;;;;5.43;4.93;;;0.20;99.90;;;;;;7386673;19;20844;-79
2023/03/08 05:57:08;;;;;;;4.90;4.50;;;0.10;99.90;;;;;;7385710;19;20297;-79
2023/03/08 05:59:35;;;;;;;5.18;4.38;;;0.20;99.90;;;;;;7385033;19;20622;-79
2023/03/08 06:02:03;;;;;;;6.30;5.07;;;0.20;99.90;;;;;;7383051;19;20320;-85
2023/03/08 06:04:34;;;;;;;5.30;4.63;;;0.20;99.90;;;;;;7379828;19;20324;-81
2023/03/08 06:07:00;;;;;;;6.30;4.88;;;0.20;99.90;;;;;;7381504;19;20303;-85
2023/03/08 06:09:32;;;;;;;4.87;4.03;;;0.20;99.90;;;;;;7380589;19;20317;-81
2023/03/08 06:11:58;;;;;;;5.82;4.55;;;0.20;99.90;;;;;;7381419;19;21218;-84
2023/03/08 06:14:30;;;;;;;5.03;4.53;;;0.20;99.90;;;;;;7380917;19;20327;-81
2023/03/08 06:16:56;;;;;;;6.47;4.90;;;0.20;99.90;;;;;;7382146;19;20328;-80
2023/03/08 06:19:27;;;;;;;5.28;4.70;;;0.20;99.90;;;;;;7382587;19;20309;-81
2023/03/08 06:21:55;;;;;;;5.57;4.65;;;0.20;99.90;;;;;;7380768;19;20328;-80
2023/03/08 06:24:27;;;;;;;5.63;5.00;;;0.20;99.90;;;;;;7382226;19;20697;-82
2023/03/08 06:26:55;;;;;;;5.53;4.35;;;0.20;99.90;;;;;;7382696;19;20312;-82
2023/03/08 06:29:22;;;;;;;5.65;5.03;;;0.20;99.90;;;;;;7379787;19;20316;-80
2023/03/08 06:31:48;;;;;;;5.55;4.90;;;0.20;99.90;;;;;;7382092;19;20317;-82
2023/03/08 06:34:16;;;;;;;5.43;4.93;;;0.20;99.90;;;;;;7383407;19;20309;-79
2023/03/08 06:36:42;;;;;;;6.40;4.95;;;0.20;99.90;;;;;;7381239;19;20316;-83
2023/03/08 06:39:08;;;;;;;5.15;4.60;;;0.30;99.90;;;;;;7383064;19;20321;-80
2023/03/08 06:41:34;;;;;;;6.43;5.10;;;0.20;99.90;;;;;;7381340;19;20316;-78
2023/03/08 06:44:01;;;;;;;7.28;5.32;;;0.20;99.90;;;;;;7379875;19;20754;-88
2023/03/08 06:46:27;;;;;;;6.00;5.30;;;0.20;99.90;;;;;;7380707;19;20308;-81
2023/03/08 06:48:53;;;;;;;5.38;4.88;;;0.20;99.90;;;;;;7382392;19;20401;-79
2023/03/08 06:51:19;;;;;;;6.85;5.05;;;0.30;99.90;;;;;;7378199;19;20320;-81
2023/03/08 06:53:45;;;;;;;6.55;5.38;;;0.30;99.90;;;;;;7379486;19;20345;-81
2023/03/08 06:56:14;;;;;;;5.57;5.07;;;0.30;99.90;;;;;;7380224;19;20355;-82
2023/03/08 06:58:39;;;;;;;6.50;5.47;;;0.30;99.90;;;;;;7382357;19;20335;-82
2023/03/08 07:01:05;;;;;;;5.67;5.10;;;0.30;99.90;;;;;;7379324;19;21180;-81
2023/03/08 07:03:31;;;;;;;7.03;5.82;;;0.40;99.90;;;;;;7379469;19;20316;-83
2023/03/08 07:06:00;;;;;;;9.65;8.10;;;0.40;99.90;;;;;;7380401;19;20320;-83
2023/03/08 07:08:26;;;;;;;11.40;9.27;;;0.40;99.90;;;;;;7379959;19;20312;-79
2023/03/08 07:10:52;;;;;;;7.23;6.17;;;0.40;99.90;;;;;;7376650;19;21203;-85
2023/03/08 07:13:17;;;;;;;6.17;5.57;;;0.50;99.90;;;;;;7378628;19;20413;-79
2023/03/08 07:15:44;;;;;;;7.80;6.30;;;0.50;99.90;;;;;;7378067;19;20325;-80
2023/03/08 07:18:10;;;;;;;7.65;5.85;;;0.50;99.90;;;;;;7377456;19;20670;-83
2023/03/08 07:20:36;;;;;;;7.22;5.70;;;0.50;99.90;;;;;;7379466;19;20679;-81
2023/03/08 07:23:02;;;;;;;6.70;5.33;;;0.50;99.90;;;;;;7378999;19;20316;-83
2023/03/08 07:25:28;;;;;;;8.02;5.90;;;0.60;99.90;;;;;;7381106;19;20300;-79
2023/03/08 07:27:53;;;;;;;7.03;5.90;;;0.60;99.90;;;;;;7380427;19;20885;-83
2023/03/08 07:30:19;;;;;;;7.70;5.20;;;0.70;99.90;;;;;;7377297;19;20419;-80
2023/03/08 07:32:45;;;;;;;6.65;5.63;;;0.60;99.90;;;;;;7376505;19;20384;-80
2023/03/08 07:35:13;;;;;;;6.67;5.93;;;0.70;99.90;;;;;;7380449;19;21010;-84
2023/03/08 07:37:38;;;;;;;6.10;5.50;;;0.70;99.90;;;;;;7376971;19;20318;-84
2023/03/08 07:40:05;;;;;;;6.90;6.20;;;0.70;99.90;;;;;;7382621;19;20316;-80
2023/03/08 07:42:37;;;;;;;6.57;5.87;;;0.70;99.90;;;;;;7386198;19;20461;-81
2023/03/08 07:45:17;;;;;;;8.50;6.90;;;0.80;99.90;;;;;;7284878;19;2004177;-83
2023/03/08 07:47:45;;;;;;;8.20;6.40;;;0.90;99.90;;;;;;7386084;19;20305;-78
2023/03/08 07:50:10;;;;;;;6.75;5.85;;;0.80;99.90;;;;;;7387574;19;20644;-76
2023/03/08 07:52:49;;;;;;;6.95;6.25;;;0.90;99.90;;;;;;7385387;19;20400;-83
2023/03/08 07:55:17;;;;;;;7.53;6.65;;;1.00;99.90;;;;;;7284155;19;2004497;-82
2023/03/08 07:57:43;;;;;;;8.57;7.57;;;1.00;99.90;;;;;;7384842;19;20416;-86
2023/03/08 08:00:09;;;;;;;6.75;6.00;;;1.00;99.90;;;;;;7383296;19;20427;-83
2023/03/08 08:02:37;;;;;;;6.45;5.82;;;1.10;99.90;;;;;;7388447;19;20665;-81
2023/03/08 08:05:03;;;;;;;6.38;5.68;;;1.20;99.90;;;;;;7384025;19;20329;-77
2023/03/08 08:07:29;;;;;;;7.78;6.40;;;1.30;99.90;;;;;;7382713;19;20328;-77
2023/03/08 08:09:55;;;;;;;7.47;6.63;;;1.30;99.90;;;;;;7383521;19;20863;-77
2023/03/08 08:12:20;;;;;;;7.10;5.85;;;1.30;99.90;;;;;;7382060;19;20445;-78
2023/03/08 08:14:46;;;;;;;7.60;6.13;;;1.40;99.90;;;;;;7383265;19;20364;-78
2023/03/08 08:17:11;;;;;;;7.00;5.72;;;1.40;99.90;;;;;;7385723;19;20316;-81
2023/03/08 08:19:37;;;;;;;6.10;5.50;;;1.50;99.90;;;;;;7386522;19;20339;-78
2023/03/08 08:22:03;;;;;;;6.85;6.00;;;1.50;99.90;;;;;;7382621;19;20346;-80
2023/03/08 08:24:29;;;;;;;6.10;5.50;;;1.60;99.90;;;;;;7388263;19;20332;-82
2023/03/08 08:26:55;;;;;;;6.55;5.85;;;1.60;99.90;;;;;;7384260;19;20611;-83
2023/03/08 08:29:21;;;;;;;6.35;5.72;;;1.60;99.90;;;;;;7386668;19;20324;-87
2023/03/08 08:31:46;;;;;;;6.97;5.93;;;1.70;99.90;;;;;;7386472;19;20344;-83
2023/03/08 08:34:12;;;;;;;9.32;5.65;;;1.70;99.90;;;;;;7388233;19;20463;-84
2023/03/08 08:36:37;;;;;;;22.13;18.10;;;1.70;99.90;;;;;;7388142;19;20336;-80
2023/03/08 08:39:03;;;;;;;8.88;6.88;;;1.80;99.90;;;;;;7388201;19;20412;-82
2023/03/08 08:41:31;;;;;;;9.97;8.27;;;1.70;99.90;;;;;;7386976;19;20325;-82
2023/03/08 08:43:58;;;;;;;12.85;9.50;;;1.90;99.90;;;;;;7384401;19;20349;-82
2023/03/08 08:46:24;;;;;;;7.53;6.45;;;1.90;99.90;;;;;;7384914;19;20328;-81
2023/03/08 08:48:49;;;;;;;8.18;6.55;;;2.00;99.90;;;;;;7384636;19;20316;-83
2023/03/08 08:51:15;;;;;;;7.80;6.77;;;2.10;99.90;;;;;;7386418;19;20337;-85
2023/03/08 08:53:40;;;;;;;6.82;5.97;;;2.20;99.90;;;;;;7388118;19;20477;-80
2023/03/08 08:56:23;;;;;;;7.03;6.33;;;2.30;99.90;;;;;;7385542;19;20308;-82
2023/03/08 08:58:49;;;;;;;7.70;6.40;;;2.20;99.90;;;;;;7280830;19;2004396;-80
2023/03/08 09:01:18;;;;;;;7.43;6.30;;;2.30;99.90;;;;;;7386236;19;21298;-83
2023/03/08 09:03:45;;;;;;;6.75;5.53;;;2.30;99.90;;;;;;7384969;19;20923;-84
2023/03/08 09:06:11;;;;;;;6.68;5.78;;;2.40;99.90;;;;;;7385170;19;20844;-79
2023/03/08 09:08:37;;;;;;;5.90;5.30;;;2.40;99.90;;;;;;7383382;19;20859;-84
2023/03/08 09:11:04;;;;;;;7.40;5.93;;;2.40;99.90;;;;;;7382487;19;20341;-84
2023/03/08 09:13:30;;;;;;;7.32;5.95;;;2.40;99.90;;;;;;7386182;19;20325;-86
2023/03/08 09:15:55;;;;;;;8.52;7.47;;;2.50;99.90;;;;;;7385922;19;20880;-79
2023/03/08 09:18:21;;;;;;;7.20;6.00;;;2.60;99.90;;;;;;7387092;19;20317;-86
2023/03/08 09:20:46;;;;;;;7.07;5.60;;;2.50;99.90;;;;;;7384313;19;20333;-80
2023/03/08 09:23:12;;;;;;;5.63;5.03;;;2.50;99.90;;;;;;7386913;19;20312;-81
2023/03/08 09:25:37;;;;;;;6.20;5.43;;;2.60;99.90;;;;;;7385652;19;20320;-84
2023/03/08 09:28:05;;;;;;;6.47;5.37;;;2.70;99.90;;;;;;7385303;19;20856;-83
2023/03/08 09:30:31;;;;;;;7.63;5.82;;;2.70;99.90;;;;;;7384462;19;20986;-83
2023/03/08 09:32:57;;;;;;;6.05;5.45;;;2.60;99.90;;;;;;7386060;19;20946;-81
2023/03/08 09:35:23;;;;;;;6.97;5.55;;;2.70;99.90;;;;;;7385046;19;20337;-82
2023/03/08 09:37:49;;;;;;;6.80;6.10;;;2.70;99.90;;;;;;7385020;19;20344;-87
2023/03/08 09:40:24;;;;;;;6.95;5.75;;;2.80;99.90;;;;;;7380170;19;20320;-80
2023/03/08 09:42:50;;;;;;;7.35;5.55;;;3.00;99.90;;;;;;7382543;19;20332;-85
2023/03/08 09:45:23;;;;;;;7.03;5.70;;;3.10;99.90;;;;;;7385328;19;20319;-84
2023/03/08 09:48:21;;;;;;;6.30;5.70;;;3.00;99.90;;;;;;7384149;19;20305;-82
2023/03/08 09:50:47;;;;;;;5.93;5.38;;;3.00;99.90;;;;;;7281999;19;2019166;-81
2023/03/08 09:53:18;;;;;;;6.07;5.20;;;2.90;99.90;;;;;;7384161;19;20317;-79
2023/03/08 09:55:46;;;;;;;6.50;5.20;;;3.10;99.90;;;;;;7281340;19;2004609;-82
2023/03/08 09:58:21;;;;;;;6.55;5.43;;;3.10;99.90;;;;;;7383076;19;20342;-79
2023/03/08 10:00:47;;;;;;;6.30;5.38;;;3.20;99.90;;;;;;7279472;19;2008534;-82
2023/03/08 10:03:19;;;;;;;5.87;5.10;;;3.30;99.90;;;;;;7384020;19;20328;-85
2023/03/08 10:06:21;;;;;;;6.10;4.85;;;3.50;99.90;;;;;;7280813;19;2004357;-78
2023/03/08 10:09:01;;;;;;;5.65;4.78;;;3.80;99.90;;;;;;7277083;19;2004249;-81
2023/03/08 10:12:04;;;;;;;5.82;4.47;;;4.00;99.90;;;;;;7381155;19;20324;-78
2023/03/08 10:14:31;;;;;;;5.80;4.90;;;3.90;99.90;;;;;;7278257;19;2004557;-81
2023/03/08 10:17:03;;;;;;;5.32;4.45;;;3.80;99.90;;;;;;7383560;19;20814;-83
2023/03/08 10:19:41;;;;;;;5.23;4.60;;;3.70;99.90;;;;;;7382865;19;20324;-81
2023/03/08 10:22:26;;;;;;;5.50;4.90;;;3.80;99.90;;;;;;7381897;19;20959;-83
2023/03/08 10:25:12;;;;;;;5.22;4.38;;;3.60;99.90;;;;;;7280455;19;2004407;-83
2023/03/08 10:27:37;;;;;;;6.88;4.82;;;3.60;99.90;;;;;;7377611;19;20444;-82
2023/03/08 10:30:12;;;;;;;5.17;3.97;;;3.70;99.90;;;;;;7378636;19;20421;-83
2023/03/08 10:32:42;;;;;;;5.15;4.40;;;3.70;99.90;;;;;;7373402;19;20329;-78
2023/03/08 10:35:07;;;;;;;4.85;4.35;;;3.60;99.90;;;;;;7380495;19;20319;-81
2023/03/08 10:37:33;;;;;;;4.65;4.20;;;3.60;99.90;;;;;;7380480;19;20309;-82
2023/03/08 10:40:03;;;;;;;4.87;4.37;;;3.70;99.90;;;;;;7377719;19;20344;-80
2023/03/08 10:42:30;;;;;;;8.10;6.38;;;3.70;99.90;;;;;;7374435;19;20321;-78
2023/03/08 10:45:01;;;;;;;5.07;3.88;;;3.80;99.90;;;;;;7377232;19;20348;-82
2023/03/08 10:47:29;;;;;;;4.90;4.20;;;3.80;99.90;;;;;;7377830;19;20833;-79
2023/03/08 10:50:20;;;;;;;5.40;4.10;;;3.90;99.90;;;;;;7375952;19;20728;-87
2023/03/08 10:52:47;;;;;;;4.53;4.13;;;4.00;99.90;;;;;;7275044;19;2004545;-83
2023/03/08 10:55:15;;;;;;;5.07;4.32;;;4.10;99.90;;;;;;7379450;19;20336;-83
2023/03/08 10:57:47;;;;;;;4.18;3.78;;;4.10;99.90;;;;;;7382511;19;20316;-90
2023/03/08 11:00:19;;;;;;;4.32;3.70;;;4.00;99.90;;;;;;7386748;19;20331;-92
2023/03/08 11:02:45;;;;;;;4.65;3.85;;;4.20;99.90;;;;;;7280378;19;2004263;-80
2023/03/08 11:05:19;;;;;;;4.73;3.97;;;4.30;99.90;;;;;;7385900;19;20324;-91
2023/03/08 11:07:52;;;;;;;4.13;3.72;;;4.30;99.90;;;;;;7283942;19;2004598;-86
2023/03/08 11:10:19;;;;;;;4.65;3.67;;;4.20;99.90;;;;;;7385157;19;20781;-81
2023/03/08 11:12:44;;;;;;;4.30;3.90;;;4.00;99.90;;;;;;7380224;19;20349;-87
2023/03/08 11:15:14;;;;;;;4.40;3.60;;;4.00;99.90;;;;;;7381524;19;20874;-85
2023/03/08 11:18:00;;;;;;;4.65;3.70;;;3.90;99.90;;;;;;7380435;19;20365;-91
2023/03/08 11:20:27;;;;;;;4.28;3.88;;;3.90;99.90;;;;;;7284175;19;2012740;-90
2023/03/08 11:23:18;;;;;;;4.63;3.90;;;3.90;99.90;;;;;;7380244;19;20892;-83
2023/03/08 11:25:59;;;;;;;4.90;4.20;;;3.90;99.90;;;;;;7383019;19;20448;-78
2023/03/08 11:29:01;;;;;;;4.88;3.80;;;3.90;99.90;;;;;;7278151;19;2004414;-87
2023/03/08 11:31:48;;;;;;;5.60;4.00;;;3.90;99.90;;;;;;7273512;19;2004798;-89
2023/03/08 11:34:29;;;;;;;6.10;4.50;;;3.90;99.90;;;;;;7383038;19;20320;-82
2023/03/08 11:37:13;;;;;;;5.53;4.80;;;3.80;99.90;;;;;;7280293;19;2004516;-92
2023/03/08 11:39:44;;;;;;;5.03;4.07;;;3.80;99.90;;;;;;7381469;19;20324;-85
2023/03/08 11:42:19;;;;;;;5.63;4.00;;;3.80;99.90;;;;;;7377624;19;20333;-94
2023/03/08 11:44:47;;;;;;;4.47;4.07;;;3.70;99.90;;;;;;7275795;19;2004931;-78
2023/03/08 11:47:25;;;;;;;4.70;3.90;;;3.70;99.90;;;;;;7381519;19;20322;-87
2023/03/08 11:49:58;;;;;;;6.53;4.80;;;3.80;99.90;;;;;;7279657;19;2004919;-84
2023/03/08 11:52:32;;;;;;;6.00;5.32;;;4.00;99.90;;;;;;7378538;19;20377;-85
2023/03/08 11:55:04;;;;;;;5.10;4.70;;;4.20;99.90;;;;;;7379058;19;20363;-85
2023/03/08 11:57:33;;;;;;;7.25;4.82;;;4.20;99.90;;;;;;7382534;19;20408;-88
2023/03/08 12:00:11;;;;;;;5.20;4.70;;;4.30;99.90;;;;;;7378124;19;20443;-81
2023/03/08 12:02:42;;;;;;;6.00;4.93;;;4.10;99.90;;;;;;7369963;19;20447;-83
2023/03/08 12:05:28;;;;;;;5.22;4.70;;;4.10;99.90;;;;;;7374469;19;20309;-79
2023/03/08 12:08:12;;;;;;;5.82;4.43;;;4.20;99.90;;;;;;7273196;19;2004319;-79
2023/03/08 12:11:05;;;;;;;4.65;4.10;;;4.20;99.90;;;;;;7380508;19;20308;-91
2023/03/08 12:13:41;;;;;;;4.90;4.20;;;4.20;99.90;;;;;;7276263;19;2004603;-89
2023/03/08 12:16:12;;;;;;;4.50;4.10;;;4.40;99.90;;;;;;7381737;19;20304;-84
2023/03/08 12:18:45;;;;;;;5.27;3.80;;;4.40;99.90;;;;;;7381396;19;20309;-82
2023/03/08 12:21:17;;;;;;;4.50;3.80;;;4.30;99.90;;;;;;7381769;19;20407;-88
2023/03/08 12:23:52;;;;;;;4.57;3.67;;;4.20;99.90;;;;;;7383146;19;20393;-90
2023/03/08 12:26:29;;;;;;;3.73;3.40;;;4.20;99.90;;;;;;7277541;19;2020221;-79
2023/03/08 12:29:01;;;;;;;5.40;3.55;;;4.10;99.90;;;;;;7395272;19;20361;-85
2023/03/08 12:31:32;;;;;;;3.97;3.60;;;4.20;99.90;;;;;;7392745;19;20399;-88
2023/03/08 12:33:58;;;;;;;4.22;3.83;;;4.30;99.90;;;;;;7390952;19;20368;-90
2023/03/08 12:36:37;;;;;;;4.25;3.85;;;4.30;99.90;;;;;;7389971;19;20431;-94
2023/03/08 12:39:24;;;;;;;3.90;3.60;;;4.40;99.90;;;;;;7389216;19;21247;-89
2023/03/08 12:42:24;;;;;;;3.47;3.17;;;4.50;99.90;;;;;;7284147;19;2004267;-90
2023/03/08 12:44:49;;;;;;;3.65;2.85;;;4.40;99.90;;;;;;7283174;19;2004088;-85
2023/03/08 12:47:20;;;;;;;3.00;2.80;;;4.10;99.90;;;;;;7389152;19;20335;-84
2023/03/08 12:49:49;;;;;;;3.50;3.20;;;4.10;99.90;;;;;;7388542;19;21073;-88
2023/03/08 12:52:17;;;;;;;3.17;2.87;;;4.20;99.90;;;;;;7384659;19;20332;-85
2023/03/08 12:54:58;;;;;;;2.90;2.70;;;4.40;99.90;;;;;;7389096;19;20357;-93
2023/03/08 12:57:26;;;;;;;3.15;2.85;;;4.50;99.90;;;;;;7284726;19;2004243;-89
2023/03/08 12:59:59;;;;;;;3.30;3.00;;;4.50;99.90;;;;;;7392003;19;20353;-94
2023/03/08 13:02:29;;;;;;;4.50;3.23;;;4.40;99.90;;;;;;7383770;19;20427;-91
2023/03/08 13:05:19;;;;;;;3.45;3.15;;;4.20;99.90;;;;;;7388057;19;20389;-93
2023/03/08 13:08:11;;;;;;;2.97;2.70;;;4.10;99.90;;;;;;7386848;19;20337;-90
2023/03/08 13:10:38;;;;;;;2.67;2.47;;;4.10;99.90;;;;;;7287491;19;2004604;-92
2023/03/08 13:13:10;;;;;;;2.92;2.63;;;4.10;99.90;;;;;;7387536;19;20356;-91
2023/03/08 13:15:36;;;;;;;4.20;3.03;;;4.10;99.90;;;;;;7389690;19;20312;-89
2023/03/08 13:18:17;;;;;;;3.17;2.97;;;4.00;99.90;;;;;;7390479;19;21077;-92
2023/03/08 13:21:14;;;;;;;2.50;2.30;;;4.00;99.90;;;;;;7388993;19;20450;-87
2023/03/08 13:24:10;;;;;;;2.47;2.27;;;4.00;99.90;;;;;;7287979;19;2004904;-91
2023/03/08 13:27:05;;;;;;;3.30;2.30;;;4.10;99.90;;;;;;7287730;19;2014133;-86
2023/03/08 13:29:31;;;;;;;2.40;2.20;;;4.30;99.90;;;;;;7287444;19;2004379;-94
2023/03/08 13:31:57;;;;;;;1.83;1.73;;;4.30;99.90;;;;;;7387764;19;20347;-89
2023/03/08 13:34:32;;;;;;;2.17;1.97;;;4.20;99.90;;;;;;7394060;19;21017;-90
2023/03/08 13:36:58;;;;;;;2.10;1.90;;;4.20;99.90;;;;;;7392483;19;20340;-93
2023/03/08 13:39:25;;;;;;;2.07;1.97;;;4.10;99.90;;;;;;7390987;19;20920;-92
2023/03/08 13:41:51;;;;;;;2.77;1.90;;;4.10;99.90;;;;;;7387275;19;20371;-91
2023/03/08 13:44:21;;;;;;;1.70;1.60;;;4.20;99.90;;;;;;7390701;19;20309;-92
2023/03/08 13:46:48;;;;;;;1.85;1.75;;;4.20;99.90;;;;;;7392396;19;20336;-84
2023/03/08 13:49:22;;;;;;;2.33;1.75;;;4.20;99.90;;;;;;7391645;19;20322;-93
2023/03/08 13:51:50;;;;;;;2.50;2.30;;;4.20;99.90;;;;;;7284807;19;2004413;-85
2023/03/08 13:54:18;;;;;;;1.65;1.55;;;4.20;99.90;;;;;;7390508;19;20384;-84
2023/03/08 13:56:44;;;;;;;1.73;1.63;;;4.30;99.90;;;;;;7394071;19;20349;-93
2023/03/08 13:59:17;;;;;;;1.97;1.83;;;4.40;99.90;;;;;;7392485;19;20320;-89
2023/03/08 14:01:47;;;;;;;2.38;1.92;;;4.50;99.90;;;;;;7389795;19;20380;-89
2023/03/08 14:04:22;;;;;;;1.97;1.87;;;4.50;99.90;;;;;;7392537;19;20301;-90
2023/03/08 14:06:55;;;;;;;2.50;2.30;;;4.60;99.90;;;;;;7291536;19;2005343;-87
2023/03/08 14:09:20;;;;;;;2.00;1.90;;;4.60;99.90;;;;;;7393694;19;20675;-92
2023/03/08 14:11:52;;;;;;;2.63;2.42;;;4.50;99.90;;;;;;7391541;19;20333;-84
2023/03/08 14:14:39;;;;;;;3.38;2.85;;;4.50;99.90;;;;;;7394051;19;20329;-88